createdAt,value
2018-02-18T02:58:04.588Z,15.17
2018-02-18T03:00:10.381Z,16.10
2018-02-18T03:02:16.249Z,14.73
2018-02-18T03:04:21.994Z,14.00
2018-02-18T03:06:28.442Z,17.77
2018-02-18T03:08:34.162Z,16.70
2018-02-18T03:10:40.292Z,14.97
2018-02-18T03:12:46.532Z,17.57
2018-02-18T03:14:52.592Z,13.90
2018-02-18T03:16:59.139Z,15.47
2018-02-18T03:19:05.150Z,15.30
2018-02-18T03:21:11.244Z,14.13
2018-02-18T03:23:18.437Z,15.13
2018-02-18T03:25:23.996Z,15.87
2018-02-18T03:27:29.621Z,14.97
2018-02-18T03:29:35.576Z,14.07
2018-02-18T03:31:41.788Z,15.33
2018-02-18T03:33:47.754Z,14.87
2018-02-18T03:35:54.378Z,18.40
2018-02-18T03:38:01.045Z,13.73
2018-02-18T03:40:07.080Z,13.70
2018-02-18T03:42:13.181Z,16.10
2018-02-18T03:44:19.178Z,17.20
2018-02-18T03:46:25.409Z,15.67
2018-02-18T03:48:31.296Z,16.70
2018-02-18T03:50:37.636Z,13.40
2018-02-18T03:52:43.297Z,16.00
2018-02-18T03:54:49.024Z,13.43
2018-02-18T03:56:54.299Z,14.20
2018-02-18T03:59:00.522Z,15.37
2018-02-18T04:01:06.417Z,15.87
2018-02-18T04:03:12.553Z,15.20
2018-02-18T04:05:18.968Z,15.50
2018-02-18T04:07:24.649Z,13.93
2018-02-18T04:09:30.505Z,13.80
2018-02-18T04:11:36.621Z,15.50
2018-02-18T04:13:42.307Z,16.90
2018-02-18T04:15:48.265Z,13.33
2018-02-18T04:17:54.858Z,14.60
2018-02-18T04:20:01.168Z,15.27
2018-02-18T04:22:06.898Z,13.17
2018-02-18T04:24:13.704Z,15.47
2018-02-18T04:26:19.324Z,16.70
2018-02-18T04:28:25.633Z,17.93
2018-02-18T04:30:31.497Z,15.07
2018-02-18T04:32:37.379Z,15.60
2018-02-18T04:34:43.189Z,16.60
2018-02-18T04:36:49.487Z,15.00
2018-02-18T04:38:55.508Z,12.83
2018-02-18T04:41:00.828Z,15.90
2018-02-18T04:43:07.198Z,14.73
2018-02-18T04:45:13.187Z,14.33
2018-02-18T04:47:19.186Z,15.67
2018-02-18T04:49:24.640Z,14.07
2018-02-18T04:51:30.876Z,13.63
2018-02-18T04:54:39.946Z,15.23
2018-02-18T04:56:46.748Z,14.33
2018-02-18T04:58:52.547Z,14.90
2018-02-18T05:00:58.384Z,14.20
2018-02-18T05:03:04.381Z,15.47
2018-02-18T05:05:10.389Z,14.83
2018-02-18T05:07:16.481Z,14.80
2018-02-18T05:09:22.233Z,17.57
2018-02-18T05:11:29.481Z,13.23
2018-02-18T05:13:35.276Z,13.17
2018-02-18T05:15:41.313Z,13.63
2018-02-18T05:17:47.392Z,11.27
2018-02-18T05:19:53.972Z,13.67
2018-02-18T05:22:00.432Z,12.40
2018-02-18T05:24:06.602Z,11.63
2018-02-18T05:26:13.509Z,11.40
2018-02-18T05:28:19.775Z,13.23
2018-02-18T05:30:25.668Z,12.40
2018-02-18T05:32:31.660Z,12.50
2018-02-18T05:34:37.639Z,11.70
2018-02-18T05:36:43.737Z,17.70
2018-02-18T05:38:49.828Z,11.10
2018-02-18T05:40:55.668Z,13.47
2018-02-18T05:43:01.449Z,12.93
2018-02-18T05:45:07.680Z,11.60
2018-02-18T05:47:13.585Z,12.80
2018-02-18T05:49:20.030Z,12.60
2018-02-18T05:51:26.996Z,12.23
2018-02-18T05:53:33.001Z,13.70
2018-02-18T05:55:39.218Z,13.90
2018-02-18T05:57:44.415Z,17.30
2018-02-18T05:59:50.179Z,13.80
2018-02-18T06:01:56.402Z,11.80
2018-02-18T06:04:02.607Z,14.93
2018-02-18T06:06:08.793Z,13.50
2018-02-18T06:08:15.797Z,13.63
2018-02-18T06:10:21.655Z,17.07
2018-02-18T06:12:28.491Z,14.47
2018-02-18T06:14:35.227Z,14.70
2018-02-18T06:16:41.471Z,14.33
2018-02-18T06:18:47.155Z,18.23
2018-02-18T06:20:53.020Z,19.93
2018-02-18T06:22:59.277Z,16.63
2018-02-18T06:25:05.571Z,21.10
2018-02-18T06:27:11.668Z,17.20
2018-02-18T06:29:17.521Z,16.67
2018-02-18T06:31:23.526Z,19.30
2018-02-18T06:33:29.536Z,21.83
2018-02-18T06:35:35.477Z,18.43
2018-02-18T06:37:40.796Z,18.90
2018-02-18T06:39:47.124Z,19.40
2018-02-18T06:41:52.747Z,17.73
2018-02-18T06:43:58.572Z,18.60
2018-02-18T06:46:04.534Z,20.10
2018-02-18T06:48:11.327Z,24.27
2018-02-18T06:50:17.233Z,20.60
2018-02-18T06:52:23.247Z,21.33
2018-02-18T06:54:29.584Z,18.80
2018-02-18T06:56:35.782Z,20.90
2018-02-18T06:58:41.686Z,22.03
2018-02-18T07:00:47.705Z,20.67
2018-02-18T07:02:53.496Z,24.17
2018-02-18T07:04:59.316Z,21.30
2018-02-18T07:07:05.717Z,20.00
2018-02-18T07:09:11.460Z,22.00
2018-02-18T07:11:17.313Z,22.70
2018-02-18T07:13:23.385Z,515.80
2018-02-18T07:15:29.568Z,1999.90
2018-02-18T07:17:35.926Z,1999.90
2018-02-18T07:19:41.912Z,1934.53
2018-02-18T07:21:48.215Z,1697.10
2018-02-18T07:23:53.505Z,861.73
2018-02-18T07:25:59.300Z,592.97
2018-02-18T07:28:04.577Z,360.37
2018-02-18T07:30:10.503Z,823.40
2018-02-18T07:32:16.857Z,662.27
2018-02-18T07:34:22.396Z,693.73
2018-02-18T07:36:28.484Z,732.80
2018-02-18T07:38:33.802Z,844.40
2018-02-18T07:40:39.722Z,805.77
2018-02-18T07:42:45.336Z,1044.97
2018-02-18T07:44:52.288Z,1055.40
2018-02-18T07:46:57.561Z,933.20
2018-02-18T07:49:04.723Z,730.47
2018-02-18T07:51:10.070Z,579.53
2018-02-18T07:53:15.921Z,459.20
2018-02-18T07:55:21.680Z,309.47
2018-02-18T07:57:27.626Z,175.10
2018-02-18T07:59:36.582Z,93.70
2018-02-18T08:01:42.416Z,55.10
2018-02-18T08:03:47.972Z,551.83
2018-02-18T08:05:54.162Z,576.90
2018-02-18T08:08:01.417Z,846.77
2018-02-18T08:10:07.966Z,1016.53
2018-02-18T08:12:13.449Z,1153.27
2018-02-18T08:14:19.184Z,1104.40
2018-02-18T08:16:25.077Z,1154.47
2018-02-18T08:19:33.941Z,1155.17
2018-02-18T08:21:39.610Z,975.17
2018-02-18T08:23:45.640Z,1986.77
2018-02-18T08:25:51.323Z,1999.90
2018-02-18T08:27:57.441Z,1999.90
2018-02-18T08:30:02.752Z,1998.63
2018-02-18T08:32:08.433Z,1999.90
2018-02-18T08:34:14.160Z,1761.60
2018-02-18T08:36:19.498Z,1999.90
2018-02-18T08:38:25.030Z,1601.90
2018-02-18T08:40:31.263Z,1221.83
2018-02-18T08:42:37.207Z,961.30
2018-02-18T08:44:42.577Z,726.77
2018-02-18T08:46:48.217Z,527.20
2018-02-18T08:48:53.492Z,394.30
2018-02-18T08:50:59.386Z,618.83
2018-02-18T08:53:05.057Z,1189.73
2018-02-18T08:55:11.125Z,1399.80
2018-02-18T08:57:16.484Z,1357.40
2018-02-18T08:59:22.110Z,992.97
2018-02-18T09:01:27.420Z,1272.23
2018-02-18T09:03:33.334Z,985.43
2018-02-18T09:05:39.006Z,709.93
2018-02-18T09:07:44.402Z,582.13
2018-02-18T09:09:49.720Z,454.53
2018-02-18T09:11:55.836Z,290.20
2018-02-18T09:14:01.845Z,188.20
2018-02-18T09:16:07.214Z,103.57
2018-02-18T09:18:13.206Z,76.43
2018-02-18T09:20:18.620Z,53.60
2018-02-18T09:22:24.216Z,43.53
2018-02-18T09:24:29.887Z,36.20
2018-02-18T09:26:35.428Z,34.77
2018-02-18T09:28:40.748Z,34.97
2018-02-18T09:30:46.895Z,32.70
2018-02-18T09:32:52.221Z,30.27
2018-02-18T09:34:57.490Z,27.23
2018-02-18T09:37:03.081Z,27.40
2018-02-18T09:39:08.374Z,28.00
2018-02-18T09:41:14.492Z,27.93
2018-02-18T09:43:20.683Z,30.70
2018-02-18T09:45:26.109Z,26.33
2018-02-18T09:47:31.462Z,27.53
2018-02-18T09:49:37.151Z,24.27
2018-02-18T09:51:42.516Z,29.93
2018-02-18T09:53:47.856Z,26.90
2018-02-18T09:55:53.474Z,25.00
2018-02-18T09:57:58.705Z,26.03
2018-02-18T10:00:04.909Z,24.97
2018-02-18T10:02:10.987Z,24.27
2018-02-18T10:04:16.706Z,23.93
2018-02-18T10:06:22.574Z,23.20
2018-02-18T10:08:29.217Z,23.60
2018-02-18T10:10:35.712Z,21.70
2018-02-18T10:12:42.059Z,22.37
2018-02-18T10:14:50.583Z,21.83
2018-02-18T10:16:56.767Z,19.60
2018-02-18T10:19:02.611Z,23.33
2018-02-18T10:21:08.936Z,21.03
2018-02-18T10:23:15.704Z,22.53
2018-02-18T10:25:21.778Z,24.70
2018-02-18T10:27:29.315Z,21.40
2018-02-18T10:29:35.562Z,20.20
2018-02-18T10:31:42.294Z,20.40
2018-02-18T10:33:49.065Z,21.43
2018-02-18T10:35:54.857Z,20.77
2018-02-18T10:38:00.801Z,23.07
2018-02-18T10:40:07.883Z,20.10
2018-02-18T10:42:13.409Z,19.57
2018-02-18T10:44:19.377Z,21.70
2018-02-18T10:46:25.057Z,21.93
2018-02-18T10:48:30.430Z,20.93
2018-02-18T10:50:35.717Z,21.17
2018-02-18T10:52:41.372Z,19.80
2018-02-18T10:54:47.209Z,24.60
2018-02-18T10:56:52.494Z,18.70
2018-02-18T10:58:58.177Z,19.67
2018-02-18T11:01:03.513Z,20.73
2018-02-18T11:03:10.232Z,19.53
2018-02-18T11:05:16.156Z,20.20
2018-02-18T11:07:25.256Z,17.17
2018-02-18T11:09:32.587Z,19.60
2018-02-18T11:11:38.280Z,17.47
2018-02-18T11:13:43.592Z,17.43
2018-02-18T11:15:50.027Z,17.97
2018-02-18T11:17:56.605Z,20.90
2018-02-18T11:20:04.433Z,17.37
2018-02-18T11:22:11.289Z,17.50
2018-02-18T11:24:17.593Z,19.83
2018-02-18T11:26:23.589Z,18.20
2018-02-18T11:28:29.393Z,20.70
2018-02-18T11:30:36.805Z,21.03
2018-02-18T11:32:42.592Z,18.97
2018-02-18T11:34:48.925Z,18.83
2018-02-18T11:36:55.153Z,16.23
2018-02-18T11:39:00.994Z,19.20
2018-02-18T11:41:07.285Z,23.50
2018-02-18T11:43:13.479Z,17.87
2018-02-18T11:45:19.471Z,21.17
2018-02-18T11:47:24.815Z,18.50
2018-02-18T11:49:30.722Z,17.67
2018-02-18T11:51:36.856Z,18.07
2018-02-18T11:53:42.180Z,20.90
2018-02-18T11:55:48.326Z,16.30
2018-02-18T11:57:53.655Z,18.20
2018-02-18T11:59:59.167Z,17.13
2018-02-18T12:02:04.849Z,19.83
2018-02-18T12:04:10.189Z,16.30
2018-02-18T12:06:15.428Z,18.83
2018-02-18T12:08:21.554Z,15.83
2018-02-18T12:10:26.852Z,16.63
2018-02-18T12:12:32.578Z,17.03
2018-02-18T12:14:39.981Z,17.33
2018-02-18T12:16:45.257Z,14.93
2018-02-18T12:18:51.208Z,12.50
2018-02-18T12:21:12.738Z,14.60
2018-02-18T12:23:18.114Z,14.97
2018-02-18T12:25:23.801Z,13.73
2018-02-18T12:27:29.399Z,14.30
2018-02-18T12:29:34.752Z,14.00
2018-02-18T12:31:40.122Z,13.77
2018-02-18T12:33:45.792Z,13.80
2018-02-18T12:35:51.031Z,14.10
2018-02-18T12:37:56.433Z,12.33
2018-02-18T12:41:04.347Z,15.50
2018-02-18T12:43:09.677Z,12.90
2018-02-18T12:45:15.344Z,11.70
2018-02-18T12:47:20.857Z,12.47
2018-02-18T12:49:27.637Z,12.63
2018-02-18T12:51:34.164Z,12.53
2018-02-18T12:53:39.499Z,15.77
2018-02-18T12:55:44.837Z,12.40
2018-02-18T12:57:50.400Z,12.23
2018-02-18T12:59:55.948Z,11.20
2018-02-18T13:02:02.908Z,10.93
2018-02-18T13:04:09.030Z,11.50
2018-02-18T13:06:21.024Z,10.93
2018-02-18T13:08:26.642Z,11.80
2018-02-18T13:10:32.543Z,504.93
2018-02-18T13:12:38.267Z,374.07
2018-02-18T13:14:43.632Z,767.63
2018-02-18T13:16:49.233Z,646.73
2018-02-18T13:18:54.570Z,713.17
2018-02-18T13:20:59.886Z,1097.20
2018-02-18T13:23:09.778Z,871.20
2018-02-18T13:25:15.133Z,1052.17
2018-02-18T13:27:23.141Z,1033.60
2018-02-18T13:29:31.388Z,647.23
2018-02-18T13:31:38.264Z,680.33
2018-02-18T13:33:43.871Z,201.83
2018-02-18T13:35:51.754Z,111.23
2018-02-18T13:37:57.743Z,57.60
2018-02-18T13:40:03.209Z,30.30
2018-02-18T13:42:08.953Z,21.20
2018-02-18T13:44:15.200Z,23.50
2018-02-18T13:46:22.663Z,16.40
2018-02-18T13:48:37.169Z,14.47
2018-02-18T13:50:43.463Z,14.80
2018-02-18T13:52:49.898Z,22.50
2018-02-18T13:54:56.261Z,1324.77
2018-02-18T13:57:02.556Z,1999.90
2018-02-18T14:01:18.134Z,880.57
2018-02-18T14:03:23.609Z,1999.90
2018-02-18T14:05:30.204Z,1999.90
2018-02-18T14:07:36.677Z,1999.90
2018-02-18T14:09:42.257Z,1999.90
2018-02-18T14:11:47.784Z,1999.90
2018-02-18T14:13:53.560Z,963.30
2018-02-18T14:15:59.000Z,1999.90
2018-02-18T14:18:05.667Z,1999.90
2018-02-18T14:20:15.270Z,1999.90
2018-02-18T14:22:21.347Z,1999.90
2018-02-18T14:24:26.964Z,1999.90
2018-02-18T14:26:32.813Z,1999.90
2018-02-18T14:28:41.920Z,1999.90
2018-02-18T14:30:47.440Z,1999.90
2018-02-18T14:32:54.005Z,1999.90
2018-02-18T14:34:59.574Z,1999.90
2018-02-18T14:37:07.160Z,1999.90
2018-02-18T14:39:13.174Z,1999.90
2018-02-18T14:41:29.088Z,1999.90
2018-02-18T14:45:49.991Z,1999.90
2018-02-18T14:52:18.162Z,1999.90
2018-02-18T14:55:40.538Z,1035.93
2018-02-18T14:57:46.221Z,693.00
2018-02-18T14:59:51.573Z,751.70
2018-02-18T15:01:56.900Z,461.43
2018-02-18T15:04:02.846Z,469.33
2018-02-18T15:06:08.237Z,201.27
2018-02-18T15:08:13.566Z,134.63
2018-02-18T15:10:19.607Z,52.53
2018-02-18T15:12:25.009Z,40.77
2018-02-18T15:14:30.322Z,27.67
2018-02-18T15:16:35.997Z,20.67
2018-02-18T15:18:41.333Z,19.43
2018-02-18T15:20:46.670Z,18.37
2018-02-18T15:22:52.296Z,111.13
2018-02-18T15:24:57.888Z,124.60
2018-02-18T15:27:04.580Z,111.10
2018-02-18T15:29:10.233Z,653.40
2018-02-18T15:31:15.639Z,1383.27
2018-02-18T15:33:21.766Z,1244.10
2018-02-18T15:35:27.549Z,1097.30
2018-02-18T15:37:33.007Z,789.07
2018-02-18T15:39:38.324Z,330.50
2018-02-18T15:41:44.433Z,175.97
2018-02-18T15:43:49.862Z,63.07
2018-02-18T15:45:55.086Z,24.50
2018-02-18T15:48:00.430Z,27.70
2018-02-18T15:50:06.551Z,26.80
2018-02-18T15:52:12.000Z,22.23
2018-02-18T15:54:18.108Z,18.67
2018-02-18T15:56:24.149Z,23.67
2018-02-18T15:58:31.866Z,20.27
2018-02-18T16:00:37.633Z,19.83
2018-02-18T16:02:43.590Z,18.17
2018-02-18T16:04:53.564Z,21.27
2018-02-18T16:07:03.210Z,18.87
2018-02-18T16:09:08.993Z,21.43
2018-02-18T16:11:14.410Z,733.43
2018-02-18T16:13:20.691Z,632.97
2018-02-18T16:15:26.949Z,491.30
2018-02-18T16:17:32.361Z,337.93
2018-02-18T16:19:40.730Z,279.50
2018-02-18T16:21:50.605Z,94.93
2018-02-18T16:23:58.952Z,42.07
2018-02-18T16:26:08.170Z,31.00
2018-02-18T16:28:14.157Z,23.03
2018-02-18T16:30:19.665Z,25.30
2018-02-18T16:32:30.611Z,23.30
2018-02-18T16:34:36.165Z,24.43
2018-02-18T16:36:42.001Z,22.40
2018-02-18T16:38:47.984Z,20.30
2018-02-18T16:40:53.801Z,19.23
2018-02-18T16:42:59.144Z,22.63
2018-02-18T16:45:06.487Z,26.87
2018-02-18T16:47:11.908Z,19.30
2018-02-18T16:49:17.442Z,18.03
2018-02-18T16:51:23.228Z,21.53
2018-02-18T16:53:28.612Z,23.50
2018-02-18T16:55:34.032Z,103.53
2018-02-18T16:57:43.516Z,342.73
2018-02-18T16:59:48.885Z,556.70
2018-02-18T17:01:58.360Z,497.37
2018-02-18T17:04:04.127Z,916.80
2018-02-18T17:06:10.926Z,775.97
2018-02-18T17:08:16.998Z,764.17
2018-02-18T17:10:23.262Z,1057.57
2018-02-18T17:12:29.287Z,590.57
2018-02-18T17:14:41.702Z,321.57
2018-02-18T17:16:48.974Z,684.83
2018-02-18T17:18:55.137Z,924.90
2018-02-18T17:21:02.000Z,504.27
2018-02-18T17:23:08.721Z,361.27
2018-02-18T17:25:14.556Z,687.77
2018-02-18T17:27:20.229Z,741.63
2018-02-18T17:29:31.671Z,1165.33
2018-02-18T17:31:38.068Z,728.83
2018-02-18T17:33:43.567Z,674.20
2018-02-18T17:35:50.086Z,729.47
2018-02-18T17:37:57.352Z,991.30
2018-02-18T17:40:03.045Z,319.13
2018-02-18T17:42:10.472Z,121.73
2018-02-18T17:44:15.954Z,48.37
2018-02-18T17:46:21.342Z,25.50
2018-02-18T17:48:28.303Z,22.70
2018-02-18T17:50:33.782Z,23.73
2018-02-18T17:52:39.632Z,21.33
2018-02-18T17:54:45.743Z,536.63
2018-02-18T17:56:51.235Z,852.13
2018-02-18T17:58:56.663Z,988.77
2018-02-18T18:01:02.575Z,1074.37
2018-02-18T18:03:08.031Z,1599.20
2018-02-18T18:05:14.180Z,612.70
2018-02-18T18:07:19.853Z,812.93
2018-02-18T18:09:25.250Z,491.90
2018-02-18T18:11:30.720Z,733.50
2018-02-18T18:13:36.544Z,1975.77
2018-02-18T18:15:41.913Z,1032.23
2018-02-18T18:17:51.360Z,275.23
2018-02-18T18:19:57.524Z,1183.23
2018-02-18T18:22:03.049Z,300.17
2018-02-18T18:24:09.673Z,337.33
2018-02-18T18:26:16.178Z,921.77
2018-02-18T18:28:21.626Z,637.03
2018-02-18T18:30:27.599Z,170.27
2018-02-18T18:32:33.774Z,217.10
2018-02-18T18:34:39.886Z,607.97
2018-02-18T18:36:46.643Z,89.13
2018-02-18T18:38:56.835Z,32.37
2018-02-18T18:41:02.280Z,24.73
2018-02-18T18:43:07.732Z,23.10
2018-02-18T18:45:14.003Z,19.93
2018-02-18T18:47:19.476Z,18.13
2018-02-18T18:49:25.159Z,17.60
2018-02-18T18:51:31.220Z,1307.87
2018-02-18T18:53:37.377Z,498.47
2018-02-18T18:55:42.881Z,753.23
2018-02-18T18:57:48.666Z,151.20
2018-02-18T18:59:55.384Z,45.03
2018-02-18T19:02:01.055Z,24.70
2018-02-18T19:04:07.000Z,629.60
2018-02-18T19:06:13.400Z,70.77
2018-02-18T19:08:19.795Z,34.80
2018-02-18T19:10:26.750Z,25.53
2018-02-18T19:12:32.338Z,20.57
2018-02-18T19:14:37.835Z,1999.90
2018-02-18T19:16:45.070Z,1436.90
2018-02-18T19:18:50.877Z,950.07
2018-02-18T19:20:59.508Z,1999.90
2018-02-18T19:23:11.766Z,1189.57
2018-02-18T19:25:17.504Z,462.97
2018-02-18T19:27:29.545Z,99.90
2018-02-18T19:29:36.601Z,47.20
2018-02-18T19:31:42.525Z,1999.90
2018-02-18T19:33:48.055Z,1016.60
2018-02-18T19:35:53.932Z,1264.63
2018-02-18T19:37:59.468Z,146.03
2018-02-18T19:40:06.046Z,80.73
2018-02-18T19:42:11.902Z,32.87
2018-02-18T19:44:17.322Z,382.17
2018-02-18T19:46:23.075Z,290.07
2018-02-18T19:48:29.053Z,277.53
2018-02-18T19:50:34.703Z,553.67
2018-02-18T19:52:40.842Z,1437.87
2018-02-18T19:54:46.555Z,1999.90
2018-02-18T19:56:52.106Z,1999.90
2018-02-18T19:58:57.606Z,1999.90
2018-02-18T20:01:03.423Z,481.63
2018-02-18T20:03:08.873Z,1464.43
2018-02-18T20:05:14.955Z,1104.23
2018-02-18T20:07:21.422Z,1156.90
2018-02-18T20:09:27.219Z,846.20
2018-02-18T20:11:33.151Z,244.43
2018-02-18T20:13:38.924Z,78.30
2018-02-18T20:15:44.428Z,699.67
2018-02-18T20:17:50.150Z,147.70
2018-02-18T20:19:55.895Z,912.00
2018-02-18T20:22:01.756Z,1483.90
2018-02-18T20:24:11.646Z,1999.90
2018-02-18T20:26:17.574Z,1568.03
2018-02-18T20:28:23.174Z,543.60
2018-02-18T20:30:28.772Z,270.70
2018-02-18T20:32:34.704Z,79.17
2018-02-18T20:34:40.280Z,39.83
2018-02-18T20:36:45.877Z,34.10
2018-02-18T20:38:51.901Z,24.73
2018-02-18T20:41:03.128Z,23.50
2018-02-18T20:43:09.680Z,1214.67
2018-02-18T20:45:16.154Z,730.57
2018-02-18T20:47:22.400Z,749.73
2018-02-18T20:49:30.690Z,967.97
2018-02-18T20:51:38.296Z,753.57
2018-02-18T20:53:43.869Z,962.73
2018-02-18T20:55:49.886Z,220.97
2018-02-18T20:57:55.734Z,60.17
2018-02-18T21:00:01.208Z,35.77
2018-02-18T21:02:06.861Z,29.60
2018-02-18T21:04:13.144Z,28.27
2018-02-18T21:06:18.694Z,31.33
2018-02-18T21:08:24.289Z,29.90
2018-02-18T21:10:29.965Z,31.23
2018-02-18T21:12:35.304Z,37.53
2018-02-18T21:14:40.787Z,38.07
2018-02-18T21:16:46.486Z,37.40
2018-02-18T21:18:52.203Z,41.00
2018-02-18T21:20:57.560Z,46.37
2018-02-18T21:23:03.990Z,47.00
2018-02-18T21:25:10.350Z,45.53
2018-02-18T21:27:15.696Z,48.70
2018-02-18T21:29:21.941Z,54.33
2018-02-18T21:31:27.620Z,58.03
2018-02-18T21:33:32.996Z,63.43
2018-02-18T21:35:38.602Z,70.00
2018-02-18T21:37:44.044Z,61.20
2018-02-18T21:39:49.483Z,56.20
2018-02-18T21:41:55.197Z,58.43
2018-02-18T21:44:00.634Z,62.43
2018-02-18T21:46:06.083Z,62.83
2018-02-18T21:48:11.833Z,67.83
2018-02-18T21:50:17.285Z,73.20
2018-02-18T21:52:23.089Z,63.43
2018-02-18T21:54:29.619Z,71.40
2018-02-18T21:56:35.273Z,85.23
2018-02-18T21:58:41.597Z,83.73
2018-02-18T22:00:47.464Z,87.10
2018-02-18T22:02:53.084Z,85.70
2018-02-18T22:04:59.089Z,79.50
2018-02-18T22:07:05.035Z,93.90
2018-02-18T22:09:10.565Z,81.13
2018-02-18T22:11:16.301Z,372.17
2018-02-18T22:13:22.143Z,786.50
2018-02-18T22:15:27.608Z,801.27
2018-02-18T22:17:33.068Z,779.93
2018-02-18T22:19:38.781Z,1059.07
2018-02-18T22:21:44.160Z,899.43
2018-02-18T22:23:49.662Z,915.43
2018-02-18T22:25:55.729Z,814.10
2018-02-18T22:28:01.439Z,657.83
2018-02-18T22:30:06.813Z,269.97
2018-02-18T22:32:12.200Z,138.90
2018-02-18T22:34:17.956Z,113.97
2018-02-18T22:36:23.614Z,101.50
2018-02-18T22:38:29.658Z,92.40
2018-02-18T22:40:35.212Z,83.80
2018-02-18T22:42:40.596Z,81.30
2018-02-18T22:44:45.999Z,91.13
2018-02-18T22:46:52.403Z,79.90
2018-02-18T22:48:57.964Z,76.40
2018-02-18T22:51:03.877Z,58.83
2018-02-18T22:53:09.330Z,56.77
2018-02-18T22:55:15.870Z,57.73
2018-02-18T22:57:22.346Z,51.00
2018-02-18T22:59:27.780Z,46.67
2018-02-18T23:01:33.728Z,46.47
2018-02-18T23:03:39.325Z,54.47
2018-02-18T23:05:48.592Z,43.27
2018-02-18T23:07:54.668Z,45.70
2018-02-18T23:10:00.101Z,40.63
2018-02-18T23:12:06.255Z,43.37
2018-02-18T23:14:12.231Z,43.10
2018-02-18T23:16:17.822Z,37.30
2018-02-18T23:18:23.790Z,36.30
2018-02-18T23:20:38.422Z,37.23
2018-02-18T23:22:44.836Z,31.00
2018-02-18T23:24:50.302Z,31.20
2018-02-18T23:26:56.771Z,32.70
2018-02-18T23:29:02.133Z,30.50
2018-02-18T23:31:08.040Z,27.83
2018-02-18T23:33:14.447Z,27.00
2018-02-18T23:35:20.328Z,27.73
2018-02-18T23:37:25.779Z,29.23
2018-02-18T23:39:31.471Z,25.53
2018-02-18T23:41:37.266Z,26.27
2018-02-18T23:43:43.231Z,23.80
2018-02-18T23:45:49.391Z,28.07
2018-02-18T23:47:54.737Z,23.17
2018-02-18T23:50:00.651Z,25.00
2018-02-18T23:52:07.121Z,22.57
2018-02-18T23:54:12.904Z,22.90
2018-02-18T23:56:18.429Z,20.33
2018-02-18T23:58:24.807Z,22.03
